Time;durP1;ratioP1;P1;durP2;ratioP2;P2;SDS_P1;SDS_P2;PMS_P1;PMS_P2;Temp;Humidity;BMP_temperature;BMP_pressure;BME280_temperature;BME280_humidity;BME280_pressure;Samples;Min_cycle;Max_cycle;Signal;HPM_P1;HPM_P2
2021/04/30 00:00:11;;;;;;;14.88;8.85;;;;;;;10.70;52.50;100786.53;5051838;28;20045;-68
2021/04/30 00:02:40;;;;;;;16.17;8.38;;;;;;;10.88;51.97;100793.78;5051439;28;20496;-68
2021/04/30 00:05:09;;;;;;;14.38;8.75;;;;;;;11.06;51.59;100788.06;5051621;28;20491;-68
2021/04/30 00:07:37;;;;;;;18.20;9.45;;;;;;;10.93;51.52;100780.69;5051274;28;20049;-68
2021/04/30 00:10:04;;;;;;;14.52;8.93;;;;;;;11.09;50.93;100770.91;5034073;28;20392;-67
2021/04/30 00:17:07;;;;;;;23.23;9.38;;;;;;;10.72;51.00;100768.53;4952486;29;20526;-67
2021/04/30 00:19:34;;;;;;;21.20;9.80;;;;;;;10.66;51.48;100771.72;4937133;29;20437;-66
2021/04/30 00:22:01;;;;;;;16.80;9.15;;;;;;;10.72;51.55;100770.50;4952146;29;20062;-66
2021/04/30 00:24:29;;;;;;;22.67;10.00;;;;;;;10.91;51.35;100762.84;4936125;29;20169;-67
2021/04/30 00:31:22;;;;;;;16.83;9.55;;;;;;;10.99;50.65;100757.38;5028439;28;20049;-67
2021/04/30 00:33:49;;;;;;;19.73;9.27;;;;;;;10.99;50.32;100751.88;5050950;28;20060;-69
2021/04/30 00:36:17;;;;;;;16.52;9.52;;;;;;;11.00;49.87;100749.94;5051195;28;20068;-68
2021/04/30 00:38:49;;;;;;;18.88;9.20;;;;;;;10.93;50.13;100744.06;5051147;28;20060;-69
2021/04/30 00:41:25;;;;;;;22.13;9.23;;;;;;;10.69;50.39;100738.88;5034087;28;20045;-71
2021/04/30 00:44:06;;;;;;;19.77;9.98;;;;;;;10.52;51.06;100746.19;5018375;28;20052;-68
2021/04/30 00:46:37;;;;;;;19.75;10.32;;;;;;;10.48;50.99;100736.94;5017604;28;20056;-69
2021/04/30 00:49:07;;;;;;;19.15;11.20;;;;;;;10.47;51.14;100730.63;5017654;28;20392;-67
2021/04/30 00:51:34;;;;;;;19.27;11.68;;;;;;;10.56;51.04;100731.50;5030496;28;20060;-68
2021/04/30 00:54:02;;;;;;;20.23;11.65;;;;;;;10.44;51.20;100722.97;5051962;28;20384;-70
2021/04/30 00:56:33;;;;;;;22.02;12.30;;;;;;;10.52;51.13;100726.91;5033875;28;20049;-69
2021/04/30 00:59:04;;;;;;;21.48;10.68;;;;;;;10.47;51.75;100730.63;5033965;28;20049;-69
2021/04/30 01:01:35;;;;;;;14.20;9.63;;;;;;;10.58;50.92;100731.19;5017218;28;20518;-68
2021/04/30 01:04:04;;;;;;;16.33;9.18;;;;;;;10.64;50.89;100729.91;5051896;28;20076;-69
2021/04/30 01:06:33;;;;;;;17.02;8.48;;;;;;;10.52;51.22;100726.91;5034188;28;20048;-68
2021/04/30 01:09:08;;;;;;;16.52;9.02;;;;;;;10.44;51.43;100720.22;5052313;28;20060;-70
2021/04/30 01:11:37;;;;;;;20.83;9.30;;;;;;;10.67;51.31;100730.09;5018541;28;20049;-69
2021/04/30 01:14:05;;;;;;;18.90;10.18;;;;;;;10.57;51.64;100730.34;5034185;28;20492;-69
2021/04/30 01:16:32;;;;;;;20.83;9.18;;;;;;;10.40;51.92;100721.97;5051600;28;20357;-67
2021/04/30 01:19:00;;;;;;;17.88;9.20;;;;;;;10.32;52.49;100722.69;5052123;28;20064;-68
2021/04/30 01:21:28;;;;;;;22.88;10.35;;;;;;;10.39;52.47;100712.06;5051808;28;20048;-67
2021/04/30 01:23:58;;;;;;;20.38;9.55;;;;;;;10.50;52.29;100723.66;5034032;28;20056;-69
2021/04/30 01:26:30;;;;;;;19.40;9.32;;;;;;;10.58;52.25;100736.69;5017365;28;20080;-68
2021/04/30 01:29:06;;;;;;;20.50;9.00;;;;;;;10.73;52.08;100737.13;5033946;28;20056;-67
2021/04/30 01:31:34;;;;;;;23.95;9.40;;;;;;;10.76;51.85;100730.16;5048943;28;20045;-66
2021/04/30 01:34:01;;;;;;;20.20;9.02;;;;;;;10.63;52.56;100737.38;5016998;28;20049;-66
2021/04/30 01:36:32;;;;;;;16.67;8.65;;;;;;;10.68;52.45;100736.44;5051323;28;20080;-68
2021/04/30 01:39:02;;;;;;;20.98;9.35;;;;;;;10.80;51.92;100733.91;5000548;28;20045;-66
2021/04/30 01:41:30;;;;;;;18.40;9.32;;;;;;;10.62;52.11;100738.50;5050564;28;20056;-68
2021/04/30 01:43:57;;;;;;;21.70;8.90;;;;;;;10.49;52.55;100738.56;5032432;28;20060;-68
2021/04/30 01:46:24;;;;;;;15.52;8.82;;;;;;;10.64;51.84;100749.19;5050652;28;20053;-68
2021/04/30 01:48:51;;;;;;;18.45;9.15;;;;;;;10.44;52.23;100738.69;5050160;28;20048;-69
2021/04/30 01:51:19;;;;;;;19.75;9.07;;;;;;;10.50;51.89;100735.47;5050263;28;20065;-69
2021/04/30 01:53:46;;;;;;;16.13;8.90;;;;;;;10.44;52.68;100741.44;5050082;28;20469;-67
2021/04/30 01:56:13;;;;;;;14.57;8.52;;;;;;;10.78;51.52;100734.22;5050144;28;20049;-67
2021/04/30 01:58:41;;;;;;;20.65;9.50;;;;;;;10.65;51.84;100732.34;5033398;28;20052;-68
2021/04/30 02:01:10;;;;;;;21.02;9.63;;;;;;;10.95;51.03;100737.09;5050801;28;20093;-65
2021/04/30 02:03:37;;;;;;;18.73;8.85;;;;;;;10.75;51.91;100740.38;5053062;28;20059;-70
2021/04/30 02:06:04;;;;;;;21.40;8.82;;;;;;;10.78;51.78;100738.91;5054441;28;20045;-67
2021/04/30 02:08:32;;;;;;;20.13;9.18;;;;;;;10.69;52.04;100733.34;5036541;28;20056;-69
2021/04/30 02:11:03;;;;;;;21.40;9.60;;;;;;;10.65;52.14;100740.59;5053747;28;20048;-66
2021/04/30 02:17:56;;;;;;;13.73;8.70;;;;;;;10.45;52.05;100752.13;5053768;28;20045;-67
2021/04/30 02:20:23;;;;;;;16.17;8.98;;;;;;;10.45;52.21;100752.13;5036573;28;20049;-69
2021/04/30 02:22:51;;;;;;;16.85;9.15;;;;;;;10.55;51.88;100753.84;5053851;28;20057;-68
2021/04/30 02:25:20;;;;;;;18.70;8.98;;;;;;;10.40;52.22;100756.94;5053732;28;20053;-68
2021/04/30 02:27:49;;;;;;;17.93;8.83;;;;;;;10.54;52.11;100763.22;5035436;28;20053;-66
2021/04/30 02:30:17;;;;;;;16.63;9.45;;;;;;;10.58;51.64;100765.06;5036534;28;20049;-67
2021/04/30 02:32:45;;;;;;;17.13;9.15;;;;;;;10.80;51.39;100745.75;5054151;28;20064;-67
2021/04/30 02:35:22;;;;;;;12.43;8.63;;;;;;;10.85;50.95;100751.13;5035856;28;20056;-66
2021/04/30 02:37:49;;;;;;;21.55;9.07;;;;;;;10.98;50.72;100753.00;5035489;28;20053;-67
2021/04/30 02:40:17;;;;;;;16.25;8.68;;;;;;;10.74;51.02;100752.50;5053752;28;20258;-67
2021/04/30 02:42:45;;;;;;;16.75;8.07;;;;;;;10.81;51.13;100763.13;5035841;28;20048;-66
2021/04/30 02:45:14;;;;;;;17.05;9.35;;;;;;;10.83;51.27;100752.56;5052738;28;20399;-67
2021/04/30 02:47:45;;;;;;;16.95;9.20;;;;;;;10.63;51.56;100753.91;5053100;28;20059;-68
2021/04/30 02:50:14;;;;;;;19.83;8.82;;;;;;;10.57;51.45;100749.63;5053040;28;20053;-70
2021/04/30 02:52:43;;;;;;;17.57;9.37;;;;;;;10.65;51.51;100748.88;5052902;28;20056;-68
2021/04/30 02:55:12;;;;;;;16.42;8.90;;;;;;;10.88;50.32;100745.00;5052890;28;20053;-67
2021/04/30 02:57:39;;;;;;;17.67;9.65;;;;;;;10.52;51.08;100744.25;5052788;28;20053;-68
2021/04/30 03:00:08;;;;;;;15.30;8.95;;;;;;;10.27;51.61;100758.59;5035910;28;20053;-67
2021/04/30 03:02:35;;;;;;;18.55;8.27;;;;;;;10.25;51.10;100746.28;5053003;28;20445;-68
2021/04/30 03:05:04;;;;;;;20.00;8.82;;;;;;;10.29;51.11;100745.34;5052980;28;20068;-67
2021/04/30 03:07:31;;;;;;;17.23;8.45;;;;;;;10.47;50.56;100751.81;5053360;28;20060;-68
2021/04/30 03:09:58;;;;;;;18.73;9.13;;;;;;;10.55;50.70;100754.63;5034657;28;20064;-69
2021/04/30 03:12:25;;;;;;;17.17;8.20;;;;;;;10.55;50.56;100751.88;5053288;28;20048;-66
2021/04/30 03:14:52;;;;;;;15.50;8.88;;;;;;;10.74;50.32;100746.22;5051991;28;20053;-67
2021/04/30 03:17:19;;;;;;;14.45;8.15;;;;;;;10.69;49.87;100754.56;5052918;28;20065;-65
2021/04/30 03:19:46;;;;;;;15.52;8.63;;;;;;;10.41;50.57;100756.63;5053031;28;20048;-68
2021/04/30 03:22:13;;;;;;;14.95;8.15;;;;;;;10.53;50.67;100745.88;5052333;28;20052;-68
2021/04/30 03:24:40;;;;;;;15.45;8.32;;;;;;;10.64;50.00;100752.78;5034763;28;20048;-69
2021/04/30 03:27:08;;;;;;;16.00;8.38;;;;;;;10.49;50.89;100744.88;5052648;28;20055;-69
2021/04/30 03:29:35;;;;;;;17.08;8.80;;;;;;;10.42;51.13;100744.50;5051969;28;20404;-66
2021/04/30 03:32:02;;;;;;;14.35;8.50;;;;;;;10.29;51.22;100745.34;5053063;28;20049;-68
2021/04/30 03:34:30;;;;;;;15.80;8.07;;;;;;;10.08;51.87;100744.16;5052731;28;20052;-70
2021/04/30 03:36:57;;;;;;;21.65;8.45;;;;;;;10.16;52.10;100741.50;5052219;28;20480;-66
2021/04/30 03:39:23;;;;;;;16.00;7.88;;;;;;;10.32;51.90;100749.44;5052121;28;20053;-70
2021/04/30 03:41:50;;;;;;;19.67;9.10;;;;;;;10.51;51.40;100744.56;5051845;28;20061;-67
2021/04/30 03:48:54;;;;;;;14.23;8.60;;;;;;;9.88;52.05;100739.09;5012837;28;20065;-69
2021/04/30 03:51:21;;;;;;;18.48;9.15;;;;;;;9.87;52.20;100731.97;5013159;28;20046;-72
2021/04/30 03:53:48;;;;;;;18.45;8.88;;;;;;;9.96;52.15;100733.69;5012831;28;20057;-69
2021/04/30 03:56:15;;;;;;;17.88;9.25;;;;;;;9.74;52.62;100744.63;5012518;28;20050;-69
2021/04/30 04:03:18;;;;;;;17.05;8.73;;;;;;;9.83;52.37;100737.25;5012448;28;20050;-70
2021/04/30 04:05:45;;;;;;;15.10;9.18;;;;;;;9.77;52.48;100734.94;5012240;28;20054;-70
2021/04/30 04:08:12;;;;;;;18.98;9.60;;;;;;;9.73;52.13;100729.22;5012903;28;20477;-69
2021/04/30 04:10:39;;;;;;;17.38;9.10;;;;;;;9.64;51.97;100727.53;5013823;28;20050;-67
2021/04/30 04:13:23;;;;;;;22.50;9.70;;;;;;;9.63;51.89;100731.38;5013120;28;20073;-69
2021/04/30 04:15:50;;;;;;;18.70;10.07;;;;;;;9.61;52.32;100734.44;5012485;28;20081;-67
2021/04/30 04:18:19;;;;;;;16.55;9.05;;;;;;;9.66;52.06;100733.53;5012744;28;20050;-68
2021/04/30 04:20:46;;;;;;;16.95;9.13;;;;;;;9.86;51.60;100738.59;5011177;28;20470;-69
2021/04/30 04:23:13;;;;;;;19.80;9.70;;;;;;;9.92;51.19;100745.63;5012519;28;20385;-69
2021/04/30 04:25:40;;;;;;;15.52;8.07;;;;;;;10.15;51.09;100750.06;5009939;28;20050;-69
2021/04/30 04:28:07;;;;;;;17.70;8.95;;;;;;;10.07;51.10;100748.88;5012279;28;20060;-68
2021/04/30 04:30:34;;;;;;;21.73;9.40;;;;;;;10.17;50.56;100737.66;5011912;28;20531;-68
2021/04/30 04:33:02;;;;;;;16.05;9.32;;;;;;;10.09;50.45;100752.13;5011063;28;20512;-68
2021/04/30 04:35:30;;;;;;;17.35;9.60;;;;;;;10.12;50.19;100750.69;5012353;28;20049;-68
2021/04/30 04:37:57;;;;;;;15.65;8.55;;;;;;;9.90;50.25;100747.88;5011872;28;20065;-66
2021/04/30 04:40:25;;;;;;;30.65;10.00;;;;;;;9.70;51.01;100756.53;5012032;28;20054;-66
2021/04/30 04:42:53;;;;;;;21.50;10.20;;;;;;;9.56;51.10;100751.03;5011102;28;20054;-66
2021/04/30 04:45:21;;;;;;;18.25;9.50;;;;;;;9.56;50.83;100755.72;5011664;28;20041;-67
2021/04/30 04:47:48;;;;;;;18.30;10.00;;;;;;;9.51;51.67;100747.59;5021711;28;20056;-68
2021/04/30 04:50:15;;;;;;;15.63;9.02;;;;;;;9.38;52.35;100743.69;5030440;28;20060;-67
2021/04/30 04:52:44;;;;;;;18.92;10.05;;;;;;;9.47;52.50;100754.81;5031908;28;20060;-68
2021/04/30 04:55:12;;;;;;;19.65;9.60;;;;;;;9.52;52.44;100749.22;5031819;28;20049;-66
2021/04/30 04:57:39;;;;;;;19.10;10.07;;;;;;;9.55;52.25;100751.34;5030381;28;20050;-69
2021/04/30 05:04:30;;;;;;;21.70;10.25;;;;;;;9.41;52.86;100767.03;5031920;28;20057;-67
2021/04/30 05:06:57;;;;;;;18.33;10.00;;;;;;;9.44;52.66;100758.16;5031489;28;20057;-69
2021/04/30 05:09:24;;;;;;;17.45;10.35;;;;;;;9.49;52.88;100747.06;5031160;28;20053;-67
2021/04/30 05:11:51;;;;;;;16.88;9.95;;;;;;;9.70;52.66;100753.78;5031156;28;20504;-67
2021/04/30 05:14:19;;;;;;;16.25;10.05;;;;;;;9.39;53.25;100747.28;5031729;28;20404;-67
2021/04/30 05:17:05;;;;;;;20.95;10.13;;;;;;;9.43;53.05;100746.34;5031420;28;20068;-69
2021/04/30 05:19:32;;;;;;;19.42;10.80;;;;;;;9.49;53.00;100752.56;5031302;28;20048;-66
2021/04/30 05:22:00;;;;;;;15.77;9.52;;;;;;;9.31;53.25;100742.50;5031293;28;20065;-67
2021/04/30 05:24:30;;;;;;;20.97;12.60;;;;;;;9.36;53.75;100750.63;5031438;28;20049;-68
2021/04/30 05:26:57;;;;;;;17.85;10.75;;;;;;;9.28;53.79;100743.91;5031487;28;20315;-68
2021/04/30 05:29:24;;;;;;;17.17;11.13;;;;;;;9.41;53.83;100751.38;5029576;28;20053;-67
2021/04/30 05:31:52;;;;;;;18.52;10.25;;;;;;;9.56;53.31;100745.53;5031243;28;20064;-67
2021/04/30 05:34:22;;;;;;;17.83;10.60;;;;;;;9.53;53.32;100756.34;5031679;28;20053;-70
2021/04/30 05:36:49;;;;;;;19.83;10.68;;;;;;;9.44;53.42;100752.66;5032598;28;20045;-68
2021/04/30 05:39:17;;;;;;;17.95;11.02;;;;;;;9.33;53.93;100765.78;5035478;28;20057;-66
2021/04/30 05:41:44;;;;;;;18.75;11.00;;;;;;;9.59;53.27;100766.94;5035039;28;20057;-69
2021/04/30 05:44:11;;;;;;;19.10;11.05;;;;;;;9.81;52.40;100771.72;5034021;28;20056;-67
2021/04/30 05:46:38;;;;;;;19.55;10.43;;;;;;;9.68;52.60;100773.34;5033143;28;20068;-66
2021/04/30 05:49:05;;;;;;;19.25;10.93;;;;;;;9.69;52.66;100772.22;5054721;28;20057;-68
2021/04/30 05:51:33;;;;;;;19.05;11.15;;;;;;;9.87;52.38;100773.22;5054127;28;20061;-65
2021/04/30 05:54:04;;;;;;;21.65;10.75;;;;;;;9.93;52.26;100781.09;5053441;28;20049;-64
2021/04/30 05:56:31;;;;;;;24.40;11.23;;;;;;;9.68;52.26;100787.09;5054218;28;20364;-66
2021/04/30 05:58:58;;;;;;;18.60;10.35;;;;;;;9.58;52.54;100776.31;5054257;28;20492;-67
2021/04/30 06:01:28;;;;;;;17.88;10.82;;;;;;;9.65;52.78;100795.16;5054555;28;20045;-67
2021/04/30 06:03:55;;;;;;;20.77;11.25;;;;;;;9.89;51.97;100793.81;5054309;28;20048;-67
2021/04/30 06:06:22;;;;;;;23.17;10.30;;;;;;;10.18;51.10;100794.31;5036632;28;20049;-69
2021/04/30 06:08:49;;;;;;;30.40;13.32;;;;;;;10.03;51.31;100793.78;5036384;28;20076;-68
2021/04/30 06:11:16;;;;;;;21.98;11.50;;;;;;;9.92;51.22;100798.69;5054617;28;20400;-68
2021/04/30 06:13:44;;;;;;;19.65;11.05;;;;;;;9.74;51.46;100801.56;5054020;28;20066;-69
2021/04/30 06:16:11;;;;;;;24.40;10.65;;;;;;;9.60;51.88;100803.50;5053086;28;20056;-66
2021/04/30 06:18:39;;;;;;;16.45;10.27;;;;;;;9.72;52.00;100814.81;5053208;28;20155;-65
2021/04/30 06:21:06;;;;;;;18.65;10.80;;;;;;;9.81;51.91;100807.47;5054252;28;20532;-68
2021/04/30 06:23:33;;;;;;;17.67;10.82;;;;;;;9.97;51.19;100814.31;5035930;28;20056;-66
2021/04/30 06:26:00;;;;;;;17.75;11.10;;;;;;;10.09;51.25;100806.38;5035503;28;20056;-66
2021/04/30 06:28:28;;;;;;;19.27;10.85;;;;;;;10.14;50.74;100818.09;5053428;28;20045;-66
2021/04/30 06:35:22;;;;;;;17.77;11.05;;;;;;;10.31;49.79;100811.94;5052666;28;20059;-69
2021/04/30 06:37:49;;;;;;;21.70;11.40;;;;;;;10.32;50.32;100812.75;5035069;28;20064;-65
2021/04/30 06:40:16;;;;;;;22.27;12.07;;;;;;;10.35;50.00;100809.38;5053709;28;20094;-66
2021/04/30 06:42:43;;;;;;;20.75;11.98;;;;;;;10.59;49.74;100813.50;5035178;28;20041;-68
2021/04/30 06:49:39;;;;;;;18.65;11.02;;;;;;;10.72;49.30;100815.38;5052158;28;20056;-67
2021/04/30 06:52:06;;;;;;;17.33;12.10;;;;;;;10.88;48.33;100815.84;5052675;28;20059;-70
2021/04/30 06:54:34;;;;;;;18.70;11.93;;;;;;;10.76;48.39;100815.56;5051985;28;20147;-67
2021/04/30 06:57:02;;;;;;;22.00;12.20;;;;;;;10.87;48.40;100812.25;5051896;28;20128;-70
2021/04/30 07:03:57;;;;;;;23.05;11.18;;;;;;;10.87;48.47;100812.25;5053254;28;20491;-69
2021/04/30 07:06:26;;;;;;;16.88;11.35;;;;;;;10.99;48.02;100812.50;5035389;28;20072;-69
2021/04/30 07:08:53;;;;;;;18.83;10.95;;;;;;;10.94;47.89;100812.63;5051985;28;20052;-70
2021/04/30 07:11:21;;;;;;;17.30;11.52;;;;;;;11.22;48.09;100818.81;5053493;28;20049;-72
2021/04/30 07:13:49;;;;;;;21.30;11.55;;;;;;;11.47;46.90;100812.66;5052683;28;20056;-70
2021/04/30 07:16:16;;;;;;;17.98;10.98;;;;;;;11.37;46.72;100814.88;5034560;28;20217;-73
2021/04/30 07:18:43;;;;;;;17.85;11.80;;;;;;;11.01;47.44;100815.78;5052430;28;20488;-72
2021/04/30 07:21:10;;;;;;;22.83;12.48;;;;;;;10.72;47.42;100814.56;5033637;28;20159;-72
2021/04/30 07:23:38;;;;;;;20.10;11.98;;;;;;;10.51;47.54;100822.50;5052811;28;20049;-77
2021/04/30 07:26:05;;;;;;;23.65;12.65;;;;;;;10.61;47.72;100813.19;5053125;28;20457;-73
2021/04/30 07:28:32;;;;;;;20.42;11.40;;;;;;;10.88;46.71;100813.09;5035232;28;20049;-69
2021/04/30 07:31:02;;;;;;;23.90;12.05;;;;;;;10.92;46.37;100809.38;5052379;28;20049;-69
2021/04/30 07:33:29;;;;;;;19.73;10.85;;;;;;;11.17;46.81;100808.75;5052150;28;20515;-69
2021/04/30 07:36:04;;;;;;;28.20;11.52;;;;;;;11.31;45.33;100800.38;5035278;28;20404;-66
2021/04/30 07:38:33;;;;;;;15.43;10.57;;;;;;;11.22;45.32;100807.78;5034035;28;20056;-64
2021/04/30 07:41:00;;;;;;;15.82;10.30;;;;;;;11.23;45.69;100803.91;5033802;28;20416;-67
2021/04/30 07:43:27;;;;;;;17.52;10.52;;;;;;;11.20;44.72;100804.53;5033928;28;20049;-68
2021/04/30 07:45:54;;;;;;;17.75;10.88;;;;;;;10.83;45.63;100807.69;5051536;28;20080;-68
2021/04/30 07:48:21;;;;;;;17.02;10.18;;;;;;;10.88;45.25;100810.34;5034350;28;20064;-66
2021/04/30 07:50:50;;;;;;;16.92;9.93;;;;;;;10.95;44.73;100808.75;5034049;28;20360;-69
2021/04/30 07:53:18;;;;;;;18.52;9.80;;;;;;;11.05;43.64;100810.44;5034451;28;20041;-69
2021/04/30 07:55:45;;;;;;;16.58;8.80;;;;;;;11.19;42.75;100808.44;5033569;28;20045;-69
2021/04/30 07:58:12;;;;;;;20.02;9.63;;;;;;;11.01;43.73;100799.22;5050792;28;20049;-71
2021/04/30 08:00:39;;;;;;;18.98;8.85;;;;;;;11.10;43.40;100805.63;5033034;28;20043;-71
2021/04/30 08:03:06;;;;;;;20.55;10.52;;;;;;;11.05;43.97;100802.97;5051411;28;20060;-70
2021/04/30 08:05:34;;;;;;;17.00;9.93;;;;;;;11.32;43.89;100802.81;5017673;28;20057;-70
2021/04/30 08:08:04;;;;;;;18.05;10.93;;;;;;;11.31;42.78;100811.41;5018429;28;20404;-70
2021/04/30 08:10:32;;;;;;;23.70;11.80;;;;;;;11.32;42.73;100800.06;5052287;28;20052;-69
2021/04/30 08:12:59;;;;;;;17.98;8.85;;;;;;;11.46;42.45;100802.72;5051675;28;20041;-68
2021/04/30 08:15:26;;;;;;;13.77;9.00;;;;;;;11.71;41.77;100801.25;5051493;28;20041;-66
2021/04/30 08:17:53;;;;;;;18.25;10.18;;;;;;;11.63;42.65;100800.03;5033078;28;20064;-68
2021/04/30 08:20:20;;;;;;;15.20;10.20;;;;;;;11.71;42.49;100795.72;5033421;28;20052;-70
2021/04/30 08:22:47;;;;;;;17.70;10.10;;;;;;;11.47;42.71;100790.59;5051157;28;20053;-69
2021/04/30 08:25:15;;;;;;;18.67;10.00;;;;;;;11.36;42.82;100797.50;5050820;28;20056;-68
2021/04/30 08:27:42;;;;;;;16.05;9.32;;;;;;;11.45;42.30;100789.25;5033373;28;20041;-69
2021/04/30 08:30:10;;;;;;;14.10;8.23;;;;;;;11.28;41.86;100801.81;5050938;28;20051;-66
2021/04/30 08:37:05;;;;;;;12.13;7.97;;;;;;;11.50;41.80;100806.50;5050418;28;20056;-67
2021/04/30 08:39:31;;;;;;;16.33;8.20;;;;;;;11.50;41.42;100809.25;5032438;28;20060;-70
2021/04/30 08:41:59;;;;;;;14.98;8.60;;;;;;;11.65;41.27;100806.09;5050138;28;20056;-67
2021/04/30 08:44:26;;;;;;;12.70;7.90;;;;;;;11.66;41.46;100804.16;5033017;28;20052;-65
2021/04/30 08:51:24;;;;;;;15.57;8.00;;;;;;;11.65;41.34;100805.25;5011407;28;20076;-69
2021/04/30 08:53:51;;;;;;;14.57;8.27;;;;;;;11.50;41.00;100808.44;5011296;28;20057;-68
2021/04/30 08:56:18;;;;;;;13.02;7.90;;;;;;;11.44;40.52;100799.47;5018346;28;20417;-66
2021/04/30 08:58:46;;;;;;;13.30;7.40;;;;;;;11.59;40.42;100806.53;5009610;28;20512;-66
2021/04/30 09:05:56;;;;;;;14.70;7.30;;;;;;;11.72;39.60;100800.09;5011694;28;20069;-67
2021/04/30 09:08:24;;;;;;;14.25;7.63;;;;;;;12.13;39.84;100790.31;5012002;28;20498;-68
2021/04/30 09:11:07;;;;;;;12.13;7.00;;;;;;;12.21;44.47;100797.81;5010126;28;20061;-68
2021/04/30 09:13:34;;;;;;;17.02;6.80;;;;;;;12.48;39.40;100785.69;5013680;28;20052;-68
2021/04/30 09:16:05;;;;;;;16.10;7.57;;;;;;;12.21;38.89;100795.06;5030585;28;20402;-66
2021/04/30 09:22:57;;;;;;;13.32;8.13;;;;;;;12.56;39.55;100781.28;5014831;28;20057;-67
2021/04/30 09:25:24;;;;;;;16.23;7.90;;;;;;;12.61;38.24;100786.63;5013574;28;20494;-67
2021/04/30 09:27:54;;;;;;;15.40;6.78;;;;;;;12.40;38.31;100792.81;5015045;28;20054;-67
2021/04/30 09:30:32;;;;;;;16.13;7.60;;;;;;;12.49;38.70;100792.81;5014415;28;20382;-66
2021/04/30 09:33:08;;;;;;;16.20;6.97;;;;;;;12.78;38.63;100787.44;5029473;28;20050;-69
2021/04/30 09:35:46;;;;;;;13.73;7.25;;;;;;;12.87;38.22;100793.78;5015071;28;20054;-70
2021/04/30 09:38:33;;;;;;;15.15;7.25;;;;;;;13.02;37.38;100789.75;5013208;28;20390;-68
2021/04/30 09:41:08;;;;;;;12.23;6.78;;;;;;;12.98;37.97;100795.09;4997828;28;20052;-68
2021/04/30 09:43:50;;;;;;;12.23;6.75;;;;;;;13.01;36.94;100794.41;5013893;28;20069;-68
2021/04/30 09:50:40;;;;;;;12.85;6.13;;;;;;;12.96;37.26;100805.66;5042164;28;20045;-71
2021/04/30 09:53:10;;;;;;;11.57;6.40;;;;;;;13.22;37.06;100800.91;5036150;28;20053;-67
2021/04/30 09:55:55;;;;;;;15.25;6.82;;;;;;;13.04;36.49;100801.28;5053628;28;20053;-68
2021/04/30 09:58:24;;;;;;;11.95;6.22;;;;;;;13.08;37.13;100799.47;5053355;28;20053;-70
2021/04/30 10:00:54;;;;;;;11.88;6.05;;;;;;;13.52;37.79;100804.59;5054707;28;20045;-69
2021/04/30 10:07:58;;;;;;;15.55;6.57;;;;;;;13.40;35.67;100810.81;5054498;28;20045;-70
2021/04/30 10:10:25;;;;;;;13.30;6.78;;;;;;;13.24;35.40;100814.41;5053931;28;20060;-68
2021/04/30 10:12:57;;;;;;;13.02;6.43;;;;;;;13.38;35.53;100799.25;5036348;28;20053;-70
2021/04/30 10:15:24;;;;;;;11.32;5.97;;;;;;;13.29;35.75;100805.94;5053571;28;20370;-71
2021/04/30 10:17:56;;;;;;;15.30;6.38;;;;;;;12.80;36.44;100809.22;5053576;28;20049;-69
2021/04/30 10:20:24;;;;;;;20.42;6.72;;;;;;;12.76;36.55;100813.81;5054098;28;20063;-69
2021/04/30 10:22:52;;;;;;;11.73;6.18;;;;;;;13.30;36.09;100804.81;5034569;28;20132;-67
2021/04/30 10:25:20;;;;;;;12.93;5.80;;;;;;;13.39;35.66;100805.59;5052802;28;20045;-67
2021/04/30 10:27:53;;;;;;;11.10;6.38;;;;;;;13.70;34.97;100808.09;5035990;28;20479;-68
2021/04/30 10:30:50;;;;;;;11.50;5.80;;;;;;;13.44;35.57;100803.44;5053482;28;20047;-68
2021/04/30 10:33:28;;;;;;;10.57;6.15;;;;;;;13.28;35.22;100807.91;5054079;28;20048;-66
2021/04/30 10:36:13;;;;;;;8.80;5.85;;;;;;;13.49;34.83;100810.78;5036596;28;20049;-68
2021/04/30 10:38:53;;;;;;;11.77;6.20;;;;;;;13.22;35.28;100802.88;5019647;28;20044;-70
2021/04/30 10:41:39;;;;;;;13.13;5.97;;;;;;;13.63;35.66;100805.03;5053352;28;20049;-67
2021/04/30 10:44:12;;;;;;;12.00;7.65;;;;;;;13.45;34.44;100804.28;5036775;28;20073;-68
2021/04/30 10:46:45;;;;;;;13.68;7.28;;;;;;;13.18;34.80;100805.47;5035893;28;20056;-67
2021/04/30 10:49:19;;;;;;;11.07;5.70;;;;;;;13.26;34.67;100801.91;5035459;28;20048;-65
2021/04/30 10:52:07;;;;;;;12.43;6.63;;;;;;;12.99;35.22;100793.94;5052093;28;20064;-66
2021/04/30 10:54:38;;;;;;;18.35;7.80;;;;;;;12.99;42.17;100802.22;5053213;28;20048;-68
2021/04/30 10:57:13;;;;;;;11.43;6.00;;;;;;;13.63;38.88;100802.25;5036753;28;20049;-65
2021/04/30 10:59:46;;;;;;;11.48;5.30;;;;;;;13.80;37.40;100803.00;5053278;28;20056;-67
2021/04/30 11:02:26;;;;;;;12.18;5.97;;;;;;;13.95;36.27;100791.34;5053350;28;20068;-67
2021/04/30 11:05:12;;;;;;;10.43;4.90;;;;;;;14.15;38.12;100790.59;5035440;28;20049;-68
2021/04/30 11:07:47;;;;;;;11.70;5.50;;;;;;;14.25;35.83;100787.44;5035359;28;20068;-65
2021/04/30 11:10:20;;;;;;;11.90;5.78;;;;;;;14.23;35.22;100791.66;5035305;28;20053;-65
2021/04/30 11:13:18;;;;;;;9.77;5.60;;;;;;;14.57;39.14;100794.25;5052947;28;20056;-65
2021/04/30 11:15:45;;;;;;;9.35;5.72;;;;;;;14.44;37.82;100798.09;5034953;28;20033;-65
2021/04/30 11:23:14;;;;;;;10.60;5.53;;;;;;;14.65;34.06;100794.19;5052263;28;20053;-63
2021/04/30 11:25:59;;;;;;;16.17;6.20;;;;;;;14.42;35.73;100792.88;5052333;28;20357;-69
2021/04/30 11:28:29;;;;;;;10.02;6.30;;;;;;;14.54;34.37;100794.91;5052436;28;20459;-64
2021/04/30 11:31:38;;;;;;;10.93;6.25;;;;;;;13.93;34.53;100801.94;5051739;28;20053;-64
2021/04/30 11:34:16;;;;;;;14.52;5.70;;;;;;;13.80;36.84;100800.22;4951430;28;20055;-67
2021/04/30 11:36:55;;;;;;;10.40;5.72;;;;;;;14.20;37.72;100795.13;4952000;28;20066;-68
2021/04/30 11:39:57;;;;;;;13.98;6.10;;;;;;;14.60;33.23;100788.03;4951892;29;20151;-66
2021/04/30 11:42:40;;;;;;;12.18;5.50;;;;;;;14.44;36.67;100782.28;4951489;29;20056;-66
2021/04/30 11:45:08;;;;;;;11.30;5.63;;;;;;;14.04;35.58;100783.81;4951642;29;20052;-65
2021/04/30 11:47:44;;;;;;;16.02;6.35;;;;;;;14.25;34.32;100784.66;4951325;29;20513;-68
2021/04/30 11:50:22;;;;;;;14.68;6.30;;;;;;;14.07;34.72;100785.13;4932615;28;20050;-67
2021/04/30 11:52:48;;;;;;;11.93;5.28;;;;;;;14.32;34.55;100786.94;4935806;29;20054;-66
2021/04/30 11:55:18;;;;;;;10.23;5.50;;;;;;;14.38;34.69;100774.50;4951825;28;20472;-66
2021/04/30 11:58:11;;;;;;;16.17;6.37;;;;;;;14.25;34.62;100779.13;4952293;28;20072;-66
2021/04/30 12:00:38;;;;;;;10.18;6.47;;;;;;;13.37;35.52;100772.72;4950048;29;20694;-66
2021/04/30 12:03:10;;;;;;;15.63;7.05;;;;;;;14.17;36.19;100765.34;4951862;28;20055;-69
2021/04/30 12:05:37;;;;;;;11.40;6.07;;;;;;;13.93;34.48;100765.94;4951061;28;20051;-67
2021/04/30 12:08:05;;;;;;;11.35;6.25;;;;;;;14.02;34.57;100763.13;4951786;29;20465;-69
2021/04/30 12:10:34;;;;;;;11.15;5.78;;;;;;;14.04;34.28;100764.44;5004439;28;20518;-69
2021/04/30 12:13:06;;;;;;;11.70;6.05;;;;;;;13.98;34.60;100767.72;5010270;28;20038;-67
2021/04/30 12:15:40;;;;;;;11.32;6.32;;;;;;;13.80;34.90;100767.00;4994727;28;20050;-67
2021/04/30 12:18:10;;;;;;;10.90;6.40;;;;;;;14.10;34.50;100765.06;5011633;28;20516;-71
2021/04/30 12:20:41;;;;;;;11.77;6.18;;;;;;;13.51;34.74;100770.56;5013650;28;20054;-68
2021/04/30 12:23:28;;;;;;;11.40;6.22;;;;;;;13.13;36.49;100766.13;5027295;28;20390;-71
2021/04/30 12:25:55;;;;;;;12.27;6.07;;;;;;;13.46;35.49;100765.19;5010922;28;20049;-68
2021/04/30 12:28:33;;;;;;;9.88;6.07;;;;;;;13.68;35.44;100771.63;5012138;28;20514;-68
2021/04/30 12:31:10;;;;;;;11.15;5.93;;;;;;;13.89;35.27;100765.00;5013575;28;20076;-66
2021/04/30 12:38:05;;;;;;;9.65;6.25;;;;;;;13.25;34.38;100763.50;5012776;28;20504;-66
2021/04/30 12:40:32;;;;;;;10.95;6.45;;;;;;;13.54;36.30;100769.09;5014018;28;20058;-69
2021/04/30 12:43:01;;;;;;;9.85;5.82;;;;;;;13.59;35.26;100766.13;5011568;28;20057;-68
2021/04/30 12:45:28;;;;;;;13.93;6.15;;;;;;;13.23;35.25;100766.56;5013229;28;20050;-70